createdAt,value
2022-09-24T00:01:47.991Z,5.15
2022-09-24T00:04:15.861Z,5.97
2022-09-24T00:06:45.772Z,5.00
2022-09-24T00:09:19.108Z,4.97
2022-09-24T00:11:47.046Z,4.97
2022-09-24T00:14:15.377Z,5.15
2022-09-24T00:16:43.877Z,5.10
2022-09-24T00:19:13.313Z,6.10
2022-09-24T00:21:42.201Z,7.13
2022-09-24T00:24:11.723Z,6.90
2022-09-24T00:26:51.828Z,5.75
2022-09-24T00:29:24.061Z,4.35
2022-09-24T00:31:53.186Z,4.70
2022-09-24T00:34:21.929Z,5.03
2022-09-24T00:36:49.735Z,4.78
2022-09-24T00:39:18.085Z,4.70
2022-09-24T00:41:49.011Z,4.65
2022-09-24T00:44:54.343Z,4.35
2022-09-24T00:47:29.714Z,4.53
2022-09-24T00:50:06.180Z,4.40
2022-09-24T00:52:35.085Z,4.32
2022-09-24T00:55:03.030Z,4.68
2022-09-24T00:57:35.280Z,5.10
2022-09-24T01:00:03.535Z,6.00
2022-09-24T01:02:33.169Z,6.13
2022-09-24T01:05:01.287Z,5.63
2022-09-24T01:07:29.096Z,5.10
2022-09-24T01:09:57.473Z,5.32
2022-09-24T01:12:33.493Z,5.05
2022-09-24T01:15:12.547Z,5.90
2022-09-24T01:17:49.712Z,6.25
2022-09-24T01:20:52.615Z,5.35
2022-09-24T01:23:49.199Z,5.10
2022-09-24T01:26:35.977Z,5.75
2022-09-24T01:29:28.250Z,6.60
2022-09-24T01:32:02.515Z,5.40
2022-09-24T01:34:37.948Z,5.70
2022-09-24T01:37:06.301Z,5.63
2022-09-24T01:39:35.778Z,6.95
2022-09-24T01:42:03.812Z,8.35
2022-09-24T01:44:33.350Z,8.73
2022-09-24T01:47:01.589Z,8.93
2022-09-24T01:49:30.326Z,8.18
2022-09-24T01:52:02.342Z,8.65
2022-09-24T01:54:33.460Z,7.63
2022-09-24T01:57:09.125Z,7.53
2022-09-24T01:59:41.550Z,8.15
2022-09-24T02:02:16.793Z,7.93
2022-09-24T02:04:48.673Z,8.38
2022-09-24T02:07:21.991Z,7.43
2022-09-24T02:09:50.771Z,8.32
2022-09-24T02:12:23.961Z,7.35
2022-09-24T02:14:57.164Z,7.75
2022-09-24T02:17:32.017Z,7.57
2022-09-24T02:20:02.898Z,7.88
2022-09-24T02:22:32.061Z,7.90
2022-09-24T02:25:05.336Z,7.80
2022-09-24T02:27:33.158Z,7.50
2022-09-24T02:30:03.243Z,7.03
2022-09-24T02:32:35.237Z,7.90
2022-09-24T02:35:05.374Z,7.38
2022-09-24T02:37:36.795Z,7.82
2022-09-24T02:40:06.554Z,7.85
2022-09-24T02:42:35.441Z,8.50
2022-09-24T02:45:05.220Z,7.78
2022-09-24T02:47:33.503Z,7.78
2022-09-24T02:50:01.425Z,7.13
2022-09-24T02:52:29.299Z,6.95
2022-09-24T02:54:57.164Z,6.60
2022-09-24T02:57:25.107Z,6.60
2022-09-24T02:59:52.976Z,5.97
2022-09-24T03:02:22.445Z,6.80
2022-09-24T03:04:52.113Z,6.60
2022-09-24T03:07:21.724Z,6.82
2022-09-24T03:09:49.576Z,6.40
2022-09-24T03:12:17.387Z,6.18
2022-09-24T03:14:45.137Z,6.40
2022-09-24T03:17:13.235Z,7.35
2022-09-24T03:19:42.425Z,8.18
2022-09-24T03:22:10.263Z,8.35
2022-09-24T03:24:38.039Z,8.32
2022-09-24T03:27:05.858Z,7.90
2022-09-24T03:29:50.312Z,8.13
2022-09-24T03:32:18.173Z,8.00
2022-09-24T03:34:47.328Z,9.25
2022-09-24T03:37:15.117Z,8.73
2022-09-24T03:39:42.882Z,8.27
2022-09-24T03:42:10.806Z,7.72
2022-09-24T03:44:38.701Z,8.02
2022-09-24T03:47:06.641Z,7.60
2022-09-24T03:49:34.607Z,7.05
2022-09-24T03:52:03.958Z,7.20
2022-09-24T03:54:31.834Z,7.40
2022-09-24T03:56:59.773Z,7.57
2022-09-24T03:59:27.595Z,7.60
2022-09-24T04:01:55.465Z,8.27
2022-09-24T04:04:23.281Z,8.50
2022-09-24T04:06:52.780Z,9.18
2022-09-24T04:09:21.944Z,8.90
2022-09-24T04:11:51.621Z,9.40
2022-09-24T04:14:19.518Z,6.32
2022-09-24T04:16:47.683Z,8.93
2022-09-24T04:19:16.705Z,8.13
2022-09-24T04:21:44.562Z,9.02
2022-09-24T04:24:12.357Z,9.02
2022-09-24T04:26:41.493Z,10.00
2022-09-24T04:29:09.514Z,8.32
2022-09-24T04:31:38.458Z,7.95
2022-09-24T04:34:06.442Z,9.15
2022-09-24T04:36:34.241Z,8.10
2022-09-24T04:39:03.378Z,7.38
2022-09-24T04:41:31.461Z,7.22
2022-09-24T04:44:00.748Z,7.70
2022-09-24T04:46:28.586Z,8.43
2022-09-24T04:48:56.627Z,9.32
2022-09-24T04:51:24.504Z,8.57
2022-09-24T04:53:52.398Z,8.93
2022-09-24T04:56:20.562Z,9.48
2022-09-24T04:58:51.835Z,10.18
2022-09-24T05:01:21.535Z,10.13
2022-09-24T05:03:49.556Z,10.40
2022-09-24T05:06:17.463Z,10.25
2022-09-24T05:08:45.313Z,10.68
2022-09-24T05:11:13.664Z,8.85
2022-09-24T05:13:41.656Z,10.07
2022-09-24T05:16:09.769Z,10.30
2022-09-24T05:18:39.015Z,10.10
2022-09-24T05:21:07.383Z,9.23
2022-09-24T05:23:35.280Z,9.63
2022-09-24T05:26:20.734Z,9.65
2022-09-24T05:28:48.681Z,9.80
2022-09-24T05:31:17.453Z,9.10
2022-09-24T05:33:46.750Z,11.15
2022-09-24T05:36:15.021Z,10.02
2022-09-24T05:38:43.005Z,8.65
2022-09-24T05:41:10.858Z,9.98
2022-09-24T05:43:38.788Z,9.35
2022-09-24T05:46:08.060Z,9.68
2022-09-24T05:48:36.068Z,9.40
2022-09-24T05:51:05.474Z,9.68
2022-09-24T05:53:33.960Z,9.40
2022-09-24T05:56:02.453Z,8.90
2022-09-24T05:58:30.311Z,8.95
2022-09-24T06:00:59.838Z,8.80
2022-09-24T06:03:27.865Z,10.90
2022-09-24T06:05:56.251Z,8.45
2022-09-24T06:08:25.579Z,9.38
2022-09-24T06:10:54.230Z,9.77
2022-09-24T06:13:22.627Z,8.77
2022-09-24T06:15:50.489Z,9.05
2022-09-24T06:18:18.636Z,9.32
2022-09-24T06:20:46.944Z,8.93
2022-09-24T06:23:14.921Z,9.38
2022-09-24T06:25:44.249Z,9.13
2022-09-24T06:28:12.213Z,9.30
2022-09-24T06:30:41.192Z,8.93
2022-09-24T06:33:10.737Z,11.65
2022-09-24T06:35:39.501Z,12.05
2022-09-24T06:38:08.198Z,11.38
2022-09-24T06:40:37.696Z,12.15
2022-09-24T06:43:07.859Z,11.98
2022-09-24T06:45:36.189Z,11.68
2022-09-24T06:48:06.574Z,11.25
2022-09-24T06:50:35.966Z,11.45
2022-09-24T06:53:06.333Z,10.93
2022-09-24T06:55:34.966Z,10.93
2022-09-24T06:58:04.766Z,10.57
2022-09-24T07:00:34.500Z,10.95
2022-09-24T07:03:02.453Z,22.33
2022-09-24T07:05:30.330Z,18.80
2022-09-24T07:07:58.156Z,13.40
2022-09-24T07:10:27.924Z,12.52
2022-09-24T07:12:56.162Z,14.48
2022-09-24T07:15:24.120Z,17.27
2022-09-24T07:17:57.852Z,17.05
2022-09-24T07:20:28.100Z,16.58
2022-09-24T07:22:56.228Z,13.93
2022-09-24T07:25:24.247Z,13.15
2022-09-24T07:27:52.170Z,12.50
2022-09-24T07:30:20.112Z,15.13
2022-09-24T07:32:50.545Z,15.05
2022-09-24T07:35:21.056Z,14.70
2022-09-24T07:37:48.891Z,12.38
2022-09-24T07:40:17.279Z,12.60
2022-09-24T07:42:49.045Z,13.40
2022-09-24T07:45:17.480Z,13.18
2022-09-24T07:47:45.423Z,12.73
2022-09-24T07:50:13.773Z,11.90
2022-09-24T07:52:42.968Z,11.15
2022-09-24T07:55:10.974Z,11.30
2022-09-24T07:57:39.377Z,10.95
2022-09-24T08:00:09.023Z,11.55
2022-09-24T08:02:39.573Z,11.05
2022-09-24T08:05:08.166Z,11.40
2022-09-24T08:07:35.978Z,11.35
2022-09-24T08:10:05.908Z,11.02
2022-09-24T08:12:33.933Z,10.85
2022-09-24T08:15:01.838Z,10.52
2022-09-24T08:17:29.626Z,10.77
2022-09-24T08:19:57.799Z,11.18
2022-09-24T08:22:26.290Z,11.50
2022-09-24T08:24:54.870Z,10.60
2022-09-24T08:27:25.193Z,10.88
2022-09-24T08:32:20.612Z,10.25
2022-09-24T08:34:48.466Z,11.27
2022-09-24T08:37:16.323Z,10.93
2022-09-24T08:39:44.182Z,10.73
2022-09-24T08:42:16.189Z,11.90
2022-09-24T08:45:04.129Z,11.55
2022-09-24T08:47:44.688Z,12.05
2022-09-24T08:50:17.390Z,11.57
2022-09-24T08:53:01.238Z,12.35
2022-09-24T08:55:35.530Z,12.02
2022-09-24T08:58:23.662Z,12.63
2022-09-24T09:00:57.764Z,13.98
2022-09-24T09:03:36.422Z,22.45
2022-09-24T09:06:07.122Z,19.15
2022-09-24T09:09:01.715Z,14.00
2022-09-24T09:11:33.990Z,13.50
2022-09-24T09:14:08.455Z,14.75
2022-09-24T09:16:45.647Z,15.20
2022-09-24T09:19:16.892Z,17.52
2022-09-24T09:21:46.843Z,17.23
2022-09-24T09:24:19.031Z,17.15
2022-09-24T09:26:50.482Z,18.40
2022-09-24T09:29:18.580Z,17.73
2022-09-24T09:31:59.582Z,17.10
2022-09-24T09:34:45.397Z,17.65
2022-09-24T09:37:26.146Z,18.95
2022-09-24T09:40:03.768Z,18.42
2022-09-24T09:42:35.950Z,18.88
2022-09-24T09:45:16.670Z,20.77
2022-09-24T09:47:50.539Z,20.20
2022-09-24T09:50:26.567Z,22.08
2022-09-24T09:52:55.325Z,20.27
2022-09-24T09:55:26.415Z,19.60
2022-09-24T09:57:59.885Z,19.10
2022-09-24T10:00:33.908Z,19.70
2022-09-24T10:03:04.205Z,19.80
2022-09-24T10:05:32.942Z,19.30
2022-09-24T10:08:00.813Z,19.80
2022-09-24T10:10:30.052Z,19.45
2022-09-24T10:13:09.797Z,20.58
2022-09-24T10:15:49.451Z,23.05
2022-09-24T10:18:23.329Z,24.20
2022-09-24T10:20:51.957Z,26.63
2022-09-24T10:23:22.365Z,27.27
2022-09-24T10:25:53.377Z,28.13
2022-09-24T10:28:39.092Z,26.25
2022-09-24T10:31:13.078Z,25.80
2022-09-24T10:33:44.762Z,26.60
2022-09-24T10:36:17.423Z,27.13
2022-09-24T10:38:45.720Z,25.10
2022-09-24T10:41:26.223Z,27.02
2022-09-24T10:43:55.519Z,23.85
2022-09-24T10:47:00.935Z,23.45
2022-09-24T10:49:44.323Z,22.38
2022-09-24T10:52:27.202Z,21.90
2022-09-24T10:55:06.307Z,21.67
2022-09-24T10:57:44.266Z,24.15
2022-09-24T11:00:19.967Z,21.83
2022-09-24T11:03:07.840Z,22.85
2022-09-24T11:05:46.035Z,21.15
2022-09-24T11:08:25.395Z,23.05
2022-09-24T11:11:13.334Z,22.65
2022-09-24T11:13:51.613Z,20.65
2022-09-24T11:17:02.218Z,20.95
2022-09-24T11:19:49.666Z,20.65
2022-09-24T11:22:26.238Z,18.95
2022-09-24T11:25:18.091Z,21.00
2022-09-24T11:27:55.103Z,21.55
2022-09-24T11:30:25.140Z,22.65
2022-09-24T11:33:11.480Z,21.83
2022-09-24T11:35:59.934Z,21.15
2022-09-24T11:38:42.819Z,21.17
2022-09-24T11:41:24.176Z,19.77
2022-09-24T11:44:11.351Z,19.00
2022-09-24T11:46:54.027Z,19.92
2022-09-24T11:49:36.729Z,18.42
2022-09-24T11:52:10.615Z,20.83
2022-09-24T11:54:47.394Z,18.88
2022-09-24T11:57:20.826Z,18.33
2022-09-24T11:59:55.466Z,22.98
2022-09-24T12:02:27.394Z,19.77
2022-09-24T12:05:03.528Z,16.13
2022-09-24T12:07:40.419Z,14.07
2022-09-24T12:10:26.828Z,14.38
2022-09-24T12:13:04.181Z,14.15
2022-09-24T12:15:47.708Z,13.35
2022-09-24T12:18:21.362Z,12.85
2022-09-24T12:20:53.075Z,14.25
2022-09-24T12:23:27.940Z,14.10
2022-09-24T12:25:59.472Z,14.27
2022-09-24T12:28:52.244Z,14.18
2022-09-24T12:31:45.906Z,14.32
2022-09-24T12:34:27.297Z,13.90
2022-09-24T12:37:02.425Z,14.32
2022-09-24T12:39:36.916Z,14.50
2022-09-24T12:42:09.157Z,13.95
2022-09-24T12:44:43.054Z,13.07
2022-09-24T12:47:21.065Z,13.70
2022-09-24T12:49:53.373Z,13.57
2022-09-24T12:52:26.987Z,13.50
2022-09-24T12:55:00.215Z,11.95
2022-09-24T12:57:33.808Z,11.98
2022-09-24T13:00:04.153Z,11.95
2022-09-24T13:05:17.542Z,13.15
2022-09-24T13:07:56.902Z,11.85
2022-09-24T13:10:27.787Z,12.90
2022-09-24T13:12:57.735Z,12.48
2022-09-24T13:15:33.339Z,14.68
2022-09-24T13:18:19.653Z,14.65
2022-09-24T13:21:00.064Z,13.27
2022-09-24T13:23:35.366Z,14.77
2022-09-24T13:26:05.540Z,13.95
2022-09-24T13:28:51.387Z,13.88
2022-09-24T13:31:27.384Z,16.42
2022-09-24T13:33:59.427Z,15.40
2022-09-24T13:36:31.768Z,14.70
2022-09-24T13:39:06.149Z,15.10
2022-09-24T13:41:43.607Z,15.27
2022-09-24T13:44:20.197Z,15.52
2022-09-24T13:46:52.285Z,15.70
2022-09-24T13:49:23.258Z,16.48
2022-09-24T13:51:59.094Z,16.42
2022-09-24T13:54:35.848Z,15.32
2022-09-24T13:57:12.705Z,16.08
2022-09-24T13:59:42.164Z,16.73
2022-09-24T14:02:27.045Z,16.80
2022-09-24T14:04:57.477Z,17.27
2022-09-24T14:07:26.644Z,18.05
2022-09-24T14:10:04.957Z,18.95
2022-09-24T14:12:33.018Z,18.17
2022-09-24T14:15:06.040Z,17.33
2022-09-24T14:17:34.007Z,17.77
2022-09-24T14:20:02.129Z,16.67
2022-09-24T14:22:36.023Z,16.90
2022-09-24T14:25:11.001Z,18.02
2022-09-24T14:27:44.045Z,17.63
2022-09-24T14:30:21.009Z,17.40
2022-09-24T14:32:53.002Z,20.27
2022-09-24T14:35:29.592Z,25.90
2022-09-24T14:38:06.424Z,31.15
2022-09-24T14:40:42.850Z,41.25
2022-09-24T14:43:19.284Z,22.20
2022-09-24T14:45:51.814Z,33.55
2022-09-24T14:48:27.975Z,40.42
2022-09-24T14:50:55.883Z,28.58
2022-09-24T14:53:27.766Z,18.65
2022-09-24T14:55:55.879Z,18.52
2022-09-24T14:58:34.946Z,18.98
2022-09-24T15:01:08.253Z,18.25
2022-09-24T15:03:42.544Z,18.60
2022-09-24T15:06:21.686Z,18.63
2022-09-24T15:08:56.169Z,19.63
2022-09-24T15:11:27.740Z,18.80
2022-09-24T15:14:01.181Z,20.00
2022-09-24T15:16:33.562Z,19.10
2022-09-24T15:19:19.632Z,18.17
2022-09-24T15:21:49.310Z,18.30
2022-09-24T15:24:18.211Z,18.30
2022-09-24T15:26:49.463Z,19.25
2022-09-24T15:29:24.610Z,20.15
2022-09-24T15:31:54.929Z,19.95
2022-09-24T15:36:55.459Z,19.33
2022-09-24T15:39:23.534Z,20.17
2022-09-24T15:41:51.469Z,21.92
2022-09-24T15:44:22.924Z,22.20
2022-09-24T15:46:52.025Z,22.55
2022-09-24T15:49:22.799Z,22.88
2022-09-24T15:51:52.477Z,23.20
2022-09-24T15:54:21.732Z,22.88
2022-09-24T15:56:52.397Z,21.95
2022-09-24T15:59:21.696Z,21.60
2022-09-24T16:01:51.892Z,21.25
2022-09-24T16:04:21.360Z,21.27
2022-09-24T16:06:49.736Z,20.15
2022-09-24T16:09:17.744Z,19.02
2022-09-24T16:11:46.807Z,20.00
2022-09-24T16:14:14.806Z,19.52
2022-09-24T16:16:42.690Z,20.02
2022-09-24T16:19:10.751Z,20.90
2022-09-24T16:21:40.019Z,20.13
2022-09-24T16:24:07.962Z,20.65
2022-09-24T16:26:37.298Z,21.10
2022-09-24T16:29:06.607Z,23.08
2022-09-24T16:31:34.640Z,23.03
2022-09-24T16:34:02.511Z,23.00
2022-09-24T16:36:30.555Z,24.48
2022-09-24T16:39:00.136Z,25.83
2022-09-24T16:41:30.893Z,26.48
2022-09-24T16:43:58.753Z,49.03
2022-09-24T16:46:26.755Z,32.28
2022-09-24T16:48:54.861Z,30.45
2022-09-24T16:51:22.836Z,28.48
2022-09-24T16:53:55.115Z,28.75
2022-09-24T16:56:24.966Z,34.55
2022-09-24T16:58:53.495Z,32.05
2022-09-24T17:01:22.947Z,31.70
2022-09-24T17:03:54.490Z,30.08
2022-09-24T17:06:24.507Z,29.35
2022-09-24T17:09:10.303Z,29.30
2022-09-24T17:11:40.559Z,31.30
2022-09-24T17:14:09.047Z,31.30
2022-09-24T17:16:37.403Z,30.92
2022-09-24T17:19:05.315Z,32.10
2022-09-24T17:21:33.248Z,33.88
2022-09-24T17:24:01.220Z,33.95
2022-09-24T17:26:29.213Z,34.15
2022-09-24T17:28:58.607Z,32.65
2022-09-24T17:31:27.526Z,30.93
2022-09-24T17:33:59.040Z,31.70
2022-09-24T17:36:28.951Z,30.40
2022-09-24T17:38:59.193Z,29.60
2022-09-24T17:43:58.141Z,28.77
2022-09-24T17:46:29.263Z,29.58
2022-09-24T17:48:58.357Z,29.35
2022-09-24T17:51:28.284Z,30.77
2022-09-24T17:53:56.982Z,31.65
2022-09-24T17:56:27.259Z,29.30
2022-09-24T17:58:56.530Z,31.35
2022-09-24T18:01:28.866Z,32.70
2022-09-24T18:03:58.433Z,33.28
2022-09-24T18:06:32.484Z,33.50
2022-09-24T18:09:02.531Z,32.97
2022-09-24T18:11:32.536Z,33.13
2022-09-24T18:14:02.169Z,33.97
2022-09-24T18:16:34.134Z,34.92
2022-09-24T18:19:03.429Z,35.00
2022-09-24T18:21:31.674Z,33.00
2022-09-24T18:24:01.634Z,32.17
2022-09-24T18:26:34.579Z,35.42
2022-09-24T18:29:05.687Z,37.83
2022-09-24T18:31:35.219Z,46.30
2022-09-24T18:34:06.608Z,45.57
2022-09-24T18:36:36.318Z,44.75
2022-09-24T18:39:05.576Z,42.05
2022-09-24T18:41:34.703Z,40.57
2022-09-24T18:44:03.617Z,38.63
2022-09-24T18:46:32.957Z,32.30
2022-09-24T18:49:03.092Z,32.20
2022-09-24T18:51:33.220Z,33.00
2022-09-24T18:54:03.343Z,30.90
2022-09-24T18:56:31.938Z,33.70
2022-09-24T18:59:03.706Z,41.47
2022-09-24T19:01:35.292Z,36.42
2022-09-24T19:04:05.123Z,40.53
2022-09-24T19:06:35.870Z,44.15
2022-09-24T19:09:06.022Z,43.53
2022-09-24T19:11:34.684Z,42.50
2022-09-24T19:14:03.116Z,38.92
2022-09-24T19:16:31.303Z,38.85
2022-09-24T19:19:01.525Z,37.53
2022-09-24T19:23:59.772Z,36.85
2022-09-24T19:26:29.980Z,43.65
2022-09-24T19:28:58.820Z,39.38
2022-09-24T19:31:29.862Z,40.25
2022-09-24T19:33:58.455Z,37.67
2022-09-24T19:36:26.284Z,37.55
2022-09-24T19:38:55.584Z,36.75
2022-09-24T19:41:26.365Z,37.40
2022-09-24T19:43:56.993Z,36.65
2022-09-24T19:46:27.012Z,34.72
2022-09-24T19:48:56.795Z,34.00
2022-09-24T19:51:25.971Z,33.75
2022-09-24T19:53:56.935Z,31.73
2022-09-24T19:56:25.494Z,33.50
2022-09-24T19:58:53.701Z,33.75
2022-09-24T20:01:22.638Z,33.88
2022-09-24T20:03:50.902Z,35.83
2022-09-24T20:06:20.523Z,34.47
2022-09-24T20:08:48.425Z,32.85
2022-09-24T20:11:20.814Z,33.72
2022-09-24T20:13:49.039Z,33.50
2022-09-24T20:16:20.170Z,33.97
2022-09-24T20:18:48.526Z,32.08
2022-09-24T20:21:18.381Z,35.55
2022-09-24T20:23:47.710Z,34.75
2022-09-24T20:26:35.742Z,37.08
2022-09-24T20:29:06.798Z,34.88
2022-09-24T20:31:34.721Z,35.50
2022-09-24T20:34:02.666Z,36.22
2022-09-24T20:36:31.301Z,36.78
2022-09-24T20:38:59.830Z,34.25
2022-09-24T20:41:29.055Z,34.65
2022-09-24T20:43:56.957Z,35.45
2022-09-24T20:46:26.414Z,34.72
2022-09-24T20:48:58.303Z,39.20
2022-09-24T20:51:27.431Z,37.80
2022-09-24T20:53:55.615Z,39.40
2022-09-24T20:56:23.692Z,40.25
2022-09-24T20:58:54.647Z,42.63
2022-09-24T21:01:23.209Z,42.55
2022-09-24T21:03:51.276Z,42.70
2022-09-24T21:06:22.661Z,46.03
2022-09-24T21:08:50.543Z,47.45
2022-09-24T21:11:21.052Z,47.53
2022-09-24T21:13:50.812Z,51.47
2022-09-24T21:16:22.138Z,54.65
2022-09-24T21:18:54.117Z,52.97
2022-09-24T21:21:24.015Z,49.10
2022-09-24T21:23:53.394Z,47.00
2022-09-24T21:26:23.193Z,47.93
2022-09-24T21:28:52.970Z,48.97
2022-09-24T21:31:23.949Z,47.25
2022-09-24T21:33:53.695Z,46.40
2022-09-24T21:36:24.270Z,46.25
2022-09-24T21:38:55.316Z,45.72
2022-09-24T21:41:23.875Z,47.72
2022-09-24T21:43:53.471Z,45.78
2022-09-24T21:46:23.590Z,46.90
2022-09-24T21:48:52.239Z,46.83
2022-09-24T21:51:22.484Z,46.28
2022-09-24T21:53:51.087Z,49.78
2022-09-24T21:56:19.443Z,44.53
2022-09-24T21:58:47.470Z,46.15
2022-09-24T22:01:17.833Z,47.75
2022-09-24T22:03:47.878Z,43.28
2022-09-24T22:06:16.619Z,46.17
2022-09-24T22:08:47.337Z,46.65
2022-09-24T22:11:16.065Z,42.15
2022-09-24T22:13:45.022Z,45.63
2022-09-24T22:16:13.015Z,41.65
2022-09-24T22:18:41.124Z,42.25
2022-09-24T22:21:12.611Z,41.17
2022-09-24T22:23:41.391Z,39.65
2022-09-24T22:26:11.307Z,41.25
2022-09-24T22:28:39.270Z,39.13
2022-09-24T22:31:09.588Z,37.45
2022-09-24T22:33:55.517Z,38.33
2022-09-24T22:36:24.865Z,35.83
2022-09-24T22:38:53.578Z,36.88
2022-09-24T22:41:21.524Z,40.17
2022-09-24T22:43:49.600Z,36.20
2022-09-24T22:46:17.567Z,32.90
2022-09-24T22:48:47.433Z,34.28
2022-09-24T22:51:15.813Z,34.08
2022-09-24T22:53:45.080Z,33.55
2022-09-24T22:56:14.750Z,35.80
2022-09-24T22:58:45.027Z,33.00
2022-09-24T23:03:42.859Z,33.75
2022-09-24T23:06:11.910Z,35.22
2022-09-24T23:08:41.056Z,35.38
2022-09-24T23:11:12.464Z,33.67
2022-09-24T23:13:41.771Z,32.90
2022-09-24T23:16:12.258Z,31.70
2022-09-24T23:18:41.029Z,30.10
2022-09-24T23:21:10.695Z,29.80
2022-09-24T23:23:38.766Z,29.38
2022-09-24T23:26:11.035Z,27.70
2022-09-24T23:28:42.542Z,30.08
2022-09-24T23:31:13.457Z,28.10
2022-09-24T23:33:42.579Z,29.30
2022-09-24T23:36:13.113Z,28.02
2022-09-24T23:38:42.105Z,25.38
2022-09-24T23:41:11.470Z,26.92
2022-09-24T23:43:39.663Z,26.33
2022-09-24T23:46:09.818Z,25.83
2022-09-24T23:51:06.756Z,24.10
2022-09-24T23:53:35.572Z,24.55
2022-09-24T23:56:05.666Z,25.52
2022-09-24T23:58:33.726Z,25.23
